Soldotna, AK

4:51 PM AKST on November 25, 2014 (GMT -0900)
Kenai Municipal | Change Station
CLOSE
Current Station
Airport
Location: Kenai,
Elevation: 95 ft
Nearby Weather Stations

Elev 95 ft 60.58 °N, 151.24 °W | Updated 58 minutes ago

Scattered Clouds
Scattered Clouds
33 °F
Feels Like 27 °F
N
7
Wind Variable Wind from SE

Today
High -- | Low -- °F
--% Chance of Precip.
Yesterday
High -- | Low -- °F
Precip. -- in
9:30 AM 4:11 PM
Waxing Crescent, 15% visible
Pressure 30.24 in
Visibility 10.0 miles
Clouds Scattered Clouds 1400 ft
Windchill 27 °F
Dew Point 31 °F
Humidity 92%
Rainfall 0.00 in
Snow Depth Not available.
UV 0 out of 12
Pollen Not available.
Air Quality Not available.
Flu Activity Not available.
METAR PAEN 260053Z 13006KT 10SM SCT014 01/M01 A3022 RMK AO2 SLP238 T00061006

More Conditions Fewer Conditions

Pressure 30.24 in
Visibility 10.0 miles
Clouds Scattered Clouds 1400 ft
Windchill 27 °F
Dew Point 31 °F
Humidity 92%
Rainfall 0.00 in
Snow Depth Not available.
UV 0 out of 12
Pollen Not available.
Air Quality Not available.
Flu Activity Not available.
METAR PAEN 260053Z 13006KT 10SM SCT014 01/M01 A3022 RMK AO2 SLP238 T00061006

More Conditions Fewer Conditions

10-Day Weather Forecast

Almanac

Astronomy

Nov. 25, 2014 Rise Set
Actual Time
Civil Twilight
Nautical Twilight
Astronomical Twilight
Moon
Length of Visible Light
Length of Day
Tomorrow will be .
, % of the Moon is Illuminated

Today's Extremes

State Highs State Lows

Community

WunderPhotos

Upload Photos

1,773,634 photos uploaded!

WunderBlogs® & News

Nearby

Air Quality

  Air Quality AQ Index Pollutant
Not available.

Snow Depth

Station Depth Elevation

Earthquake Activity

City Distance Mag. Time & Date
Minimum magnitude displayed is 2.5.

Coastal Water Temperatures

Place Temperature

Nearby Weather Stations